Nearby METAR Reports

 

KSLC - Salt Lake City, Utah, USA
Distance from station: SW 8mi, 13km
Updated: Thu, 24-May-2018 8:54am MDT
Partly cloudy
Partly cloudy
 Wind from SE
Wind: SE 9 mph , 15 km/h
Temperature: 63°F , 17°C
Dew Point: 45°F , 7°C
Humidity: 52%
Barometer: 30.10 inHg , 1019.3 hPa
Clouds: Partly cloudy
Visibility: 10 miles , 16 km
Cloud details: Few Clouds 8000 ft
Partly cloudy 11000 ft
2018/05/24 14:54 KSLC 241454Z 14008KT 10SM FEW080 SCT110 17/07 A3010
KU42 - Salt Lake Muni, Utah, USA
Distance from station: SSW 18mi, 28km
Updated: Thu, 24-May-2018 9:35am MDT
Partly cloudy
Partly cloudy
 Wind from SSE
Wind: SSE 9 mph , 15 km/h
Temperature: 70°F , 21°C
Dew Point: 46°F , 8°C
Humidity: 43%
Barometer: 30.13 inHg , 1020.3 hPa
Clouds: Partly cloudy
Visibility: 10 miles , 16 km
Cloud details: Partly cloudy 12000 ft
2018/05/24 15:35 KU42 241535Z AUTO 15008KT 10SM SCT120 21/08 A3013 RMK AO1 T02070076
 
KHIF - Hill Afb/Ogden, Utah, USA
Distance from station: NNW 19mi, 30km
Updated: Thu, 24-May-2018 8:58am MDT
Few Clouds
Few Clouds
 Wind from ESE
Wind: ESE 14 mph , 22 km/h
Temperature: 61°F , 16°C
Dew Point: 43°F , 6°C
Humidity: 52%
Barometer: 30.13 inHg , 1020.3 hPa
Clouds: Few Clouds
Visibility: 10 miles , 16 km
Cloud details: Few Clouds 10000 ft
2018/05/24 14:58 KHIF 241458Z 11012KT 10SM FEW100 16/06 A3013 RMK AO2A SLP161 T01640057 52014
KOGD - Ogden, Utah, USA
Distance from station: NNW 25mi, 40km
Updated: Thu, 24-May-2018 8:53am MDT
Clear
Clear
 Wind from calm
Wind: Calm
Temperature: 66°F , 19°C
Dew Point: 43°F , 6°C
Humidity: 43%
Barometer: 30.11 inHg , 1019.6 hPa
Clouds: Clear
Visibility: 10 miles , 16 km
2018/05/24 14:53 KOGD 241453Z 00000KT 10SM CLR 19/06 A3011 RMK AO2 SLP152 T01890056 51016
 
K36U - Heber/Russ Mcdon, Utah, USA
Distance from station: SE 34mi, 55km
Updated: Wed, 31-Dec-1969 5:00pm MST
NOT Current
unable to load K36U data RC=404 Not Found
unable to load K36U data RC=404 Not Found
 
KPVU - Provo Muni, Utah, USA
Distance from station: S 45mi, 72km
Updated: Thu, 24-May-2018 8:56am MDT
Partly cloudy
Partly cloudy
 Wind from S
Wind: S 7 mph , 11 km/h
Temperature: 64°F , 18°C
Dew Point: 43°F , 6°C
Humidity: 46%
Barometer: 30.15 inHg , 1021 hPa
Clouds: Partly cloudy
Visibility: 10 miles , 16 km
Cloud details: Partly cloudy 11000 ft
2018/05/24 14:56 KPVU 241456Z 17006KT 10SM SCT110 18/06 A3015 RMK AO2 SLP169 T01780061 51013